sensor_id;sensor_type;location;lat;lon;timestamp;pressure;altitude;pressure_sealevel;temperature;humidity
76680;BME280;65597;51.520;-0.224;2023-04-15T00:01:34;100818.42;;;9.49;47.36
76680;BME280;65597;51.520;-0.224;2023-04-15T00:04:00;100818.06;;;9.86;47.29
76680;BME280;65597;51.520;-0.224;2023-04-15T00:06:25;100819.83;;;9.99;47.26
76680;BME280;65597;51.520;-0.224;2023-04-15T00:08:50;100824.17;;;10.06;47.35
76680;BME280;65597;51.520;-0.224;2023-04-15T00:11:16;100825.90;;;9.87;47.26
76680;BME280;65597;51.520;-0.224;2023-04-15T00:13:41;100826.79;;;9.91;46.89
76680;BME280;65597;51.520;-0.224;2023-04-15T00:16:09;100828.09;;;9.85;46.84
76680;BME280;65597;51.520;-0.224;2023-04-15T00:18:32;100826.84;;;9.81;47.11
76680;BME280;65597;51.520;-0.224;2023-04-15T00:20:58;100827.90;;;9.80;46.71
76680;BME280;65597;51.520;-0.224;2023-04-15T00:23:28;100836.28;;;9.87;46.55
76680;BME280;65597;51.520;-0.224;2023-04-15T00:25:49;100843.25;;;10.16;46.33
76680;BME280;65597;51.520;-0.224;2023-04-15T00:28:15;100847.84;;;9.91;46.76
76680;BME280;65597;51.520;-0.224;2023-04-15T00:30:40;100847.08;;;9.51;47.16
76680;BME280;65597;51.520;-0.224;2023-04-15T00:33:05;100847.55;;;9.41;47.01
76680;BME280;65597;51.520;-0.224;2023-04-15T00:35:30;100848.31;;;9.66;46.97
76680;BME280;65597;51.520;-0.224;2023-04-15T00:37:55;100851.25;;;9.06;47.71
76680;BME280;65597;51.520;-0.224;2023-04-15T00:40:22;100850.60;;;9.29;47.40
76680;BME280;65597;51.520;-0.224;2023-04-15T00:42:47;100849.64;;;8.96;48.16
76680;BME280;65597;51.520;-0.224;2023-04-15T00:45:12;100850.46;;;8.90;48.41
76680;BME280;65597;51.520;-0.224;2023-04-15T00:47:40;100856.74;;;8.81;48.81
76680;BME280;65597;51.520;-0.224;2023-04-15T00:50:04;100857.35;;;8.60;48.95
76680;BME280;65597;51.520;-0.224;2023-04-15T00:52:30;100860.89;;;8.48;49.74
76680;BME280;65597;51.520;-0.224;2023-04-15T00:54:54;100862.52;;;8.49;49.72
76680;BME280;65597;51.520;-0.224;2023-04-15T00:57:20;100867.00;;;8.81;49.38
76680;BME280;65597;51.520;-0.224;2023-04-15T00:59:45;100866.65;;;8.42;49.89
76680;BME280;65597;51.520;-0.224;2023-04-15T01:02:10;100864.69;;;8.15;50.25
76680;BME280;65597;51.520;-0.224;2023-04-15T01:04:36;100867.91;;;8.36;49.89
76680;BME280;65597;51.520;-0.224;2023-04-15T01:07:02;100872.74;;;8.23;50.04
76680;BME280;65597;51.520;-0.224;2023-04-15T01:09:27;100879.55;;;8.63;49.66
76680;BME280;65597;51.520;-0.224;2023-04-15T01:11:52;100886.25;;;8.37;49.50
76680;BME280;65597;51.520;-0.224;2023-04-15T01:14:18;100891.15;;;8.37;49.78
76680;BME280;65597;51.520;-0.224;2023-04-15T01:16:43;100896.26;;;8.40;49.54
76680;BME280;65597;51.520;-0.224;2023-04-15T01:19:09;100895.54;;;8.36;49.79
76680;BME280;65597;51.520;-0.224;2023-04-15T01:21:35;100898.81;;;8.36;49.64
76680;BME280;65597;51.520;-0.224;2023-04-15T01:24:00;100899.78;;;8.04;49.72
76680;BME280;65597;51.520;-0.224;2023-04-15T01:26:25;100899.11;;;8.53;49.22
76680;BME280;65597;51.520;-0.224;2023-04-15T01:28:51;100907.32;;;8.57;49.78
76680;BME280;65597;51.520;-0.224;2023-04-15T01:31:16;100912.07;;;8.29;50.16
76680;BME280;65597;51.520;-0.224;2023-04-15T01:33:42;100914.72;;;8.04;49.97
76680;BME280;65597;51.520;-0.224;2023-04-15T01:36:08;100919.44;;;7.88;49.78
76680;BME280;65597;51.520;-0.224;2023-04-15T01:38:33;100926.01;;;7.90;49.71
76680;BME280;65597;51.520;-0.224;2023-04-15T01:40:58;100928.55;;;8.11;49.58
76680;BME280;65597;51.520;-0.224;2023-04-15T01:43:24;100931.48;;;8.32;49.41
76680;BME280;65597;51.520;-0.224;2023-04-15T01:45:49;100936.19;;;8.49;49.02
76680;BME280;65597;51.520;-0.224;2023-04-15T01:48:14;100940.66;;;8.76;49.04
76680;BME280;65597;51.520;-0.224;2023-04-15T01:50:39;100939.51;;;8.06;49.29
76680;BME280;65597;51.520;-0.224;2023-04-15T01:53:06;100942.90;;;8.24;49.20
76680;BME280;65597;51.520;-0.224;2023-04-15T01:55:31;100948.75;;;8.45;48.91
76680;BME280;65597;51.520;-0.224;2023-04-15T01:57:56;100950.87;;;8.47;48.57
76680;BME280;65597;51.520;-0.224;2023-04-15T02:00:22;100950.55;;;8.48;48.57
76680;BME280;65597;51.520;-0.224;2023-04-15T02:02:47;100955.60;;;8.35;48.93
76680;BME280;65597;51.520;-0.224;2023-04-15T02:05:14;100956.23;;;8.41;48.62
76680;BME280;65597;51.520;-0.224;2023-04-15T02:07:38;100962.18;;;8.31;48.36
76680;BME280;65597;51.520;-0.224;2023-04-15T02:10:04;100966.13;;;8.76;48.35
76680;BME280;65597;51.520;-0.224;2023-04-15T02:12:29;100964.13;;;8.41;48.00
76680;BME280;65597;51.520;-0.224;2023-04-15T02:14:56;100970.98;;;8.47;47.89
76680;BME280;65597;51.520;-0.224;2023-04-15T02:17:22;100972.59;;;8.35;48.05
76680;BME280;65597;51.520;-0.224;2023-04-15T02:19:46;100975.66;;;8.27;47.97
76680;BME280;65597;51.520;-0.224;2023-04-15T02:22:11;100978.94;;;8.39;47.82
76680;BME280;65597;51.520;-0.224;2023-04-15T02:24:36;100983.05;;;8.50;47.77
76680;BME280;65597;51.520;-0.224;2023-04-15T02:27:02;100987.25;;;8.23;47.66
76680;BME280;65597;51.520;-0.224;2023-04-15T02:29:33;100991.23;;;8.30;47.60
76680;BME280;65597;51.520;-0.224;2023-04-15T02:31:53;100995.03;;;8.06;47.94
76680;BME280;65597;51.520;-0.224;2023-04-15T02:34:18;101000.54;;;7.84;48.40
76680;BME280;65597;51.520;-0.224;2023-04-15T02:36:44;101004.16;;;7.89;49.20
76680;BME280;65597;51.520;-0.224;2023-04-15T02:39:09;101004.62;;;8.00;48.91
76680;BME280;65597;51.520;-0.224;2023-04-15T02:41:35;101006.97;;;7.83;48.84
76680;BME280;65597;51.520;-0.224;2023-04-15T02:44:00;101006.05;;;7.72;48.83
76680;BME280;65597;51.520;-0.224;2023-04-15T02:46:26;101013.47;;;7.44;49.69
76680;BME280;65597;51.520;-0.224;2023-04-15T02:48:51;101012.41;;;7.96;49.35
76680;BME280;65597;51.520;-0.224;2023-04-15T02:51:22;101015.47;;;8.27;48.95
76680;BME280;65597;51.520;-0.224;2023-04-15T02:53:42;101024.81;;;7.16;49.73
76680;BME280;65597;51.520;-0.224;2023-04-15T02:56:08;101031.53;;;7.40;49.96
76680;BME280;65597;51.520;-0.224;2023-04-15T02:58:34;101034.51;;;7.24;50.43
76680;BME280;65597;51.520;-0.224;2023-04-15T03:00:59;101033.70;;;7.39;50.01
76680;BME280;65597;51.520;-0.224;2023-04-15T03:03:24;101034.85;;;7.57;50.23
76680;BME280;65597;51.520;-0.224;2023-04-15T03:05:51;101029.94;;;7.62;49.71
76680;BME280;65597;51.520;-0.224;2023-04-15T03:08:15;101024.80;;;7.82;49.61
76680;BME280;65597;51.520;-0.224;2023-04-15T03:10:41;101029.59;;;8.11;48.90
76680;BME280;65597;51.520;-0.224;2023-04-15T03:13:06;101035.33;;;7.84;48.78
76680;BME280;65597;51.520;-0.224;2023-04-15T03:15:32;101040.40;;;8.09;48.70
76680;BME280;65597;51.520;-0.224;2023-04-15T03:17:57;101044.21;;;7.74;48.77
76680;BME280;65597;51.520;-0.224;2023-04-15T03:20:22;101045.68;;;7.84;48.65
76680;BME280;65597;51.520;-0.224;2023-04-15T03:22:48;101050.13;;;8.03;48.58
76680;BME280;65597;51.520;-0.224;2023-04-15T03:25:14;101053.14;;;8.38;48.34
76680;BME280;65597;51.520;-0.224;2023-04-15T03:27:40;101055.22;;;8.56;48.27
76680;BME280;65597;51.520;-0.224;2023-04-15T03:30:07;101060.37;;;8.38;48.15
76680;BME280;65597;51.520;-0.224;2023-04-15T03:32:30;101064.71;;;8.36;47.98
76680;BME280;65597;51.520;-0.224;2023-04-15T03:34:56;101074.31;;;8.90;47.68
76680;BME280;65597;51.520;-0.224;2023-04-15T03:37:21;101082.02;;;8.74;47.60
76680;BME280;65597;51.520;-0.224;2023-04-15T03:39:46;101082.91;;;8.58;47.59
76680;BME280;65597;51.520;-0.224;2023-04-15T03:42:13;101085.40;;;8.51;47.42
76680;BME280;65597;51.520;-0.224;2023-04-15T03:44:37;101091.93;;;8.41;47.80
76680;BME280;65597;51.520;-0.224;2023-04-15T03:47:03;101096.73;;;8.49;47.56
76680;BME280;65597;51.520;-0.224;2023-04-15T03:49:28;101101.09;;;8.26;47.92
76680;BME280;65597;51.520;-0.224;2023-04-15T03:51:55;101105.72;;;8.32;47.81
76680;BME280;65597;51.520;-0.224;2023-04-15T03:54:20;101109.16;;;8.65;47.65
76680;BME280;65597;51.520;-0.224;2023-04-15T03:56:45;101110.81;;;8.73;47.57
76680;BME280;65597;51.520;-0.224;2023-04-15T03:59:10;101111.23;;;8.92;47.21
76680;BME280;65597;51.520;-0.224;2023-04-15T04:01:36;101117.14;;;9.02;46.93
76680;BME280;65597;51.520;-0.224;2023-04-15T04:04:01;101121.97;;;8.94;46.98
76680;BME280;65597;51.520;-0.224;2023-04-15T04:06:28;101128.29;;;8.27;47.87
76680;BME280;65597;51.520;-0.224;2023-04-15T04:08:52;101130.58;;;7.83;48.63
76680;BME280;65597;51.520;-0.224;2023-04-15T04:11:18;101140.06;;;7.45;49.70
76680;BME280;65597;51.520;-0.224;2023-04-15T04:13:43;101140.02;;;7.70;49.00
76680;BME280;65597;51.520;-0.224;2023-04-15T04:16:09;101141.43;;;8.15;49.04
76680;BME280;65597;51.520;-0.224;2023-04-15T04:18:36;101146.61;;;7.93;49.05
76680;BME280;65597;51.520;-0.224;2023-04-15T04:20:59;101148.51;;;8.30;48.42
76680;BME280;65597;51.520;-0.224;2023-04-15T04:23:25;101151.52;;;7.93;48.46
76680;BME280;65597;51.520;-0.224;2023-04-15T04:25:50;101157.62;;;7.85;48.49
76680;BME280;65597;51.520;-0.224;2023-04-15T04:28:16;101164.42;;;8.13;48.33
76680;BME280;65597;51.520;-0.224;2023-04-15T04:30:41;101166.99;;;8.05;48.43
76680;BME280;65597;51.520;-0.224;2023-04-15T04:33:07;101174.21;;;8.47;48.21
76680;BME280;65597;51.520;-0.224;2023-04-15T04:35:32;101182.08;;;7.79;48.76
76680;BME280;65597;51.520;-0.224;2023-04-15T04:37:58;101185.90;;;7.42;49.50
76680;BME280;65597;51.520;-0.224;2023-04-15T04:40:23;101188.71;;;8.18;48.66
76680;BME280;65597;51.520;-0.224;2023-04-15T04:42:48;101191.58;;;8.23;48.72
76680;BME280;65597;51.520;-0.224;2023-04-15T04:45:14;101199.65;;;8.10;48.57
76680;BME280;65597;51.520;-0.224;2023-04-15T04:47:39;101200.20;;;8.30;48.28
76680;BME280;65597;51.520;-0.224;2023-04-15T04:50:06;101204.65;;;8.49;48.33
76680;BME280;65597;51.520;-0.224;2023-04-15T04:52:35;101209.86;;;7.72;48.96
76680;BME280;65597;51.520;-0.224;2023-04-15T04:54:57;101213.79;;;7.77;49.10
76680;BME280;65597;51.520;-0.224;2023-04-15T04:57:21;101221.93;;;8.04;48.80
76680;BME280;65597;51.520;-0.224;2023-04-15T04:59:47;101228.20;;;7.71;49.35
76680;BME280;65597;51.520;-0.224;2023-04-15T05:02:12;101228.15;;;8.02;49.54
76680;BME280;65597;51.520;-0.224;2023-04-15T05:04:40;101228.33;;;7.68;49.78
76680;BME280;65597;51.520;-0.224;2023-04-15T05:07:04;101235.42;;;7.87;49.67
76680;BME280;65597;51.520;-0.224;2023-04-15T05:09:29;101237.39;;;7.91;49.85
76680;BME280;65597;51.520;-0.224;2023-04-15T05:11:54;101244.09;;;8.08;49.51
76680;BME280;65597;51.520;-0.224;2023-04-15T05:14:20;101253.98;;;7.36;50.06
76680;BME280;65597;51.520;-0.224;2023-04-15T05:16:45;101258.49;;;7.85;49.65
76680;BME280;65597;51.520;-0.224;2023-04-15T05:19:12;101264.05;;;7.31;50.81
76680;BME280;65597;51.520;-0.224;2023-04-15T05:21:36;101273.42;;;7.57;50.61
76680;BME280;65597;51.520;-0.224;2023-04-15T05:24:03;101279.61;;;7.58;50.67
76680;BME280;65597;51.520;-0.224;2023-04-15T05:26:27;101286.02;;;7.60;50.36
76680;BME280;65597;51.520;-0.224;2023-04-15T05:28:53;101289.26;;;7.74;50.08
76680;BME280;65597;51.520;-0.224;2023-04-15T05:31:19;101294.22;;;7.53;51.01
76680;BME280;65597;51.520;-0.224;2023-04-15T05:33:44;101299.37;;;7.44;50.57
76680;BME280;65597;51.520;-0.224;2023-04-15T05:36:10;101311.92;;;7.50;50.43
76680;BME280;65597;51.520;-0.224;2023-04-15T05:38:35;101316.23;;;7.63;50.31
76680;BME280;65597;51.520;-0.224;2023-04-15T05:41:01;101324.15;;;7.41;50.67
76680;BME280;65597;51.520;-0.224;2023-04-15T05:43:28;101333.28;;;7.40;51.23
76680;BME280;65597;51.520;-0.224;2023-04-15T05:45:51;101339.16;;;7.06;51.43
76680;BME280;65597;51.520;-0.224;2023-04-15T05:48:17;101344.81;;;7.16;51.16
76680;BME280;65597;51.520;-0.224;2023-04-15T05:50:43;101351.03;;;6.89;51.33
76680;BME280;65597;51.520;-0.224;2023-04-15T05:53:08;101358.07;;;7.28;50.65
76680;BME280;65597;51.520;-0.224;2023-04-15T05:55:35;101365.76;;;7.47;50.72
76680;BME280;65597;51.520;-0.224;2023-04-15T05:57:59;101364.60;;;7.81;50.02
76680;BME280;65597;51.520;-0.224;2023-04-15T06:00:25;101373.63;;;8.06;49.72
76680;BME280;65597;51.520;-0.224;2023-04-15T06:02:50;101378.86;;;8.03;49.38
76680;BME280;65597;51.520;-0.224;2023-04-15T06:05:16;101379.96;;;8.25;49.57
76680;BME280;65597;51.520;-0.224;2023-04-15T06:07:42;101384.68;;;7.92;49.86
76680;BME280;65597;51.520;-0.224;2023-04-15T06:10:07;101382.93;;;8.31;49.32
76680;BME280;65597;51.520;-0.224;2023-04-15T06:12:32;101383.34;;;8.02;49.25
76680;BME280;65597;51.520;-0.224;2023-04-15T06:14:58;101385.17;;;8.42;49.03
76680;BME280;65597;51.520;-0.224;2023-04-15T06:17:23;101387.70;;;8.36;48.98
76680;BME280;65597;51.520;-0.224;2023-04-15T06:19:50;101397.80;;;8.65;48.59
76680;BME280;65597;51.520;-0.224;2023-04-15T06:22:14;101402.09;;;8.54;48.34
76680;BME280;65597;51.520;-0.224;2023-04-15T06:24:40;101407.82;;;8.83;48.27
76680;BME280;65597;51.520;-0.224;2023-04-15T06:27:05;101411.95;;;8.09;48.67
76680;BME280;65597;51.520;-0.224;2023-04-15T06:29:31;101416.06;;;8.07;48.80
76680;BME280;65597;51.520;-0.224;2023-04-15T06:31:57;101422.48;;;8.29;48.39
76680;BME280;65597;51.520;-0.224;2023-04-15T06:34:22;101424.32;;;8.75;48.20
76680;BME280;65597;51.520;-0.224;2023-04-15T06:36:47;101429.47;;;7.90;48.82
76680;BME280;65597;51.520;-0.224;2023-04-15T06:39:13;101432.46;;;7.89;49.11
76680;BME280;65597;51.520;-0.224;2023-04-15T06:41:38;101438.11;;;7.76;49.88
76680;BME280;65597;51.520;-0.224;2023-04-15T06:44:05;101441.17;;;7.31;50.35
76680;BME280;65597;51.520;-0.224;2023-04-15T06:46:34;101450.98;;;7.24;50.40
76680;BME280;65597;51.520;-0.224;2023-04-15T06:48:55;101457.26;;;7.64;50.39
76680;BME280;65597;51.520;-0.224;2023-04-15T06:51:21;101464.41;;;6.99;51.43
76680;BME280;65597;51.520;-0.224;2023-04-15T06:53:46;101469.32;;;7.54;51.39
76680;BME280;65597;51.520;-0.224;2023-04-15T06:56:11;101478.17;;;7.74;51.07
76680;BME280;65597;51.520;-0.224;2023-04-15T06:58:37;101480.36;;;8.02;50.77
76680;BME280;65597;51.520;-0.224;2023-04-15T07:01:02;101480.27;;;7.73;50.01
76680;BME280;65597;51.520;-0.224;2023-04-15T07:03:28;101487.15;;;7.84;49.69
76680;BME280;65597;51.520;-0.224;2023-04-15T07:05:53;101491.45;;;7.79;50.27
76680;BME280;65597;51.520;-0.224;2023-04-15T07:08:24;101495.18;;;8.37;49.99
76680;BME280;65597;51.520;-0.224;2023-04-15T07:10:45;101502.28;;;6.81;51.11
76680;BME280;65597;51.520;-0.224;2023-04-15T07:13:09;101507.29;;;8.12;50.24
76680;BME280;65597;51.520;-0.224;2023-04-15T07:15:35;101511.25;;;7.77;50.21
76680;BME280;65597;51.520;-0.224;2023-04-15T07:18:02;101519.62;;;7.97;50.40
76680;BME280;65597;51.520;-0.224;2023-04-15T07:20:28;101523.91;;;7.81;50.31
76680;BME280;65597;51.520;-0.224;2023-04-15T07:22:51;101525.24;;;8.09;49.79
76680;BME280;65597;51.520;-0.224;2023-04-15T07:25:17;101530.56;;;7.68;50.18
76680;BME280;65597;51.520;-0.224;2023-04-15T07:27:42;101536.48;;;8.38;49.96
76680;BME280;65597;51.520;-0.224;2023-04-15T07:30:09;101536.75;;;8.29;49.50
76680;BME280;65597;51.520;-0.224;2023-04-15T07:32:34;101543.51;;;7.99;49.36
76680;BME280;65597;51.520;-0.224;2023-04-15T07:34:59;101551.46;;;8.40;49.33
76680;BME280;65597;51.520;-0.224;2023-04-15T07:37:26;101556.46;;;8.58;49.05
76680;BME280;65597;51.520;-0.224;2023-04-15T07:39:50;101561.24;;;8.87;48.77
76680;BME280;65597;51.520;-0.224;2023-04-15T07:42:16;101568.88;;;8.89;48.51
76680;BME280;65597;51.520;-0.224;2023-04-15T07:44:42;101572.70;;;8.91;48.51
76680;BME280;65597;51.520;-0.224;2023-04-15T07:47:06;101578.97;;;8.75;48.42
76680;BME280;65597;51.520;-0.224;2023-04-15T07:49:32;101582.23;;;8.68;48.30
76680;BME280;65597;51.520;-0.224;2023-04-15T07:51:57;101590.59;;;8.71;48.54
76680;BME280;65597;51.520;-0.224;2023-04-15T07:54:23;101596.73;;;8.53;48.35
76680;BME280;65597;51.520;-0.224;2023-04-15T07:56:49;101599.64;;;8.79;48.07
76680;BME280;65597;51.520;-0.224;2023-04-15T07:59:19;101607.22;;;8.73;48.48
76680;BME280;65597;51.520;-0.224;2023-04-15T08:01:39;101607.38;;;9.17;48.04
76680;BME280;65597;51.520;-0.224;2023-04-15T08:04:05;101614.00;;;9.12;48.16
76680;BME280;65597;51.520;-0.224;2023-04-15T08:06:30;101617.15;;;8.74;48.10
76680;BME280;65597;51.520;-0.224;2023-04-15T08:08:56;101621.22;;;9.36;47.80
76680;BME280;65597;51.520;-0.224;2023-04-15T08:11:21;101621.77;;;8.93;48.40
76680;BME280;65597;51.520;-0.224;2023-04-15T08:13:47;101627.86;;;9.25;47.51
76680;BME280;65597;51.520;-0.224;2023-04-15T08:16:16;101629.34;;;9.13;47.71
76680;BME280;65597;51.520;-0.224;2023-04-15T08:18:38;101632.76;;;9.23;47.26
76680;BME280;65597;51.520;-0.224;2023-04-15T08:21:03;101634.40;;;9.46;47.07
76680;BME280;65597;51.520;-0.224;2023-04-15T08:23:28;101639.88;;;9.37;47.16
76680;BME280;65597;51.520;-0.224;2023-04-15T08:25:53;101643.35;;;9.28;47.28
76680;BME280;65597;51.520;-0.224;2023-04-15T08:28:24;101645.20;;;9.49;47.23
76680;BME280;65597;51.520;-0.224;2023-04-15T08:30:45;101646.73;;;9.26;47.33
76680;BME280;65597;51.520;-0.224;2023-04-15T08:33:12;101644.63;;;9.62;46.81
76680;BME280;65597;51.520;-0.224;2023-04-15T08:35:36;101648.36;;;9.91;46.04
76680;BME280;65597;51.520;-0.224;2023-04-15T08:38:01;101651.97;;;9.80;45.81
76680;BME280;65597;51.520;-0.224;2023-04-15T08:40:34;101658.63;;;10.04;45.66
76680;BME280;65597;51.520;-0.224;2023-04-15T08:42:53;101663.58;;;10.13;45.73
76680;BME280;65597;51.520;-0.224;2023-04-15T08:45:19;101669.60;;;10.24;45.50
76680;BME280;65597;51.520;-0.224;2023-04-15T08:47:44;101674.07;;;10.14;45.07
76680;BME280;65597;51.520;-0.224;2023-04-15T08:50:09;101680.61;;;10.35;44.94
76680;BME280;65597;51.520;-0.224;2023-04-15T08:52:34;101687.09;;;10.14;44.67
76680;BME280;65597;51.520;-0.224;2023-04-15T08:55:01;101689.54;;;9.73;45.40
76680;BME280;65597;51.520;-0.224;2023-04-15T08:57:27;101693.71;;;10.23;45.30
76680;BME280;65597;51.520;-0.224;2023-04-15T08:59:51;101696.84;;;10.21;45.94
76680;BME280;65597;51.520;-0.224;2023-04-15T09:02:16;101699.57;;;10.21;45.36
76680;BME280;65597;51.520;-0.224;2023-04-15T09:04:41;101702.12;;;9.60;45.45
76680;BME280;65597;51.520;-0.224;2023-04-15T09:07:07;101703.12;;;9.83;45.91
76680;BME280;65597;51.520;-0.224;2023-04-15T09:09:33;101705.31;;;10.26;45.43
76680;BME280;65597;51.520;-0.224;2023-04-15T09:11:57;101707.73;;;10.22;45.27
76680;BME280;65597;51.520;-0.224;2023-04-15T09:14:23;101716.48;;;9.81;45.18
76680;BME280;65597;51.520;-0.224;2023-04-15T09:16:58;101723.11;;;9.44;45.53
76680;BME280;65597;51.520;-0.224;2023-04-15T09:19:19;101723.04;;;9.76;45.63
76680;BME280;65597;51.520;-0.224;2023-04-15T09:21:46;101727.50;;;10.21;45.41
76680;BME280;65597;51.520;-0.224;2023-04-15T09:24:05;101732.28;;;9.76;45.53
76680;BME280;65597;51.520;-0.224;2023-04-15T09:26:31;101739.98;;;9.92;45.51
76680;BME280;65597;51.520;-0.224;2023-04-15T09:29:02;101744.06;;;10.26;45.44
76680;BME280;65597;51.520;-0.224;2023-04-15T09:31:28;101748.97;;;10.62;45.66
76680;BME280;65597;51.520;-0.224;2023-04-15T09:33:54;101756.80;;;10.48;44.99
76680;BME280;65597;51.520;-0.224;2023-04-15T09:36:11;101771.36;;;10.35;45.01
76680;BME280;65597;51.520;-0.224;2023-04-15T09:41:03;101783.12;;;10.70;44.87
76680;BME280;65597;51.520;-0.224;2023-04-15T09:43:36;101789.36;;;10.84;44.61
76680;BME280;65597;51.520;-0.224;2023-04-15T09:45:54;101794.99;;;10.99;48.41
76680;BME280;65597;51.520;-0.224;2023-04-15T09:48:20;101801.08;;;10.73;44.43
76680;BME280;65597;51.520;-0.224;2023-04-15T09:50:44;101805.90;;;10.66;44.04
76680;BME280;65597;51.520;-0.224;2023-04-15T09:53:10;101814.18;;;10.96;44.24
76680;BME280;65597;51.520;-0.224;2023-04-15T09:55:35;101819.16;;;10.86;44.40
76680;BME280;65597;51.520;-0.224;2023-04-15T09:58:02;101827.33;;;10.76;44.58
76680;BME280;65597;51.520;-0.224;2023-04-15T10:00:28;101826.81;;;10.87;43.84
76680;BME280;65597;51.520;-0.224;2023-04-15T10:02:51;101833.49;;;11.01;44.11
76680;BME280;65597;51.520;-0.224;2023-04-15T10:05:17;101835.30;;;10.63;44.32
76680;BME280;65597;51.520;-0.224;2023-04-15T10:07:42;101837.38;;;10.40;44.54
76680;BME280;65597;51.520;-0.224;2023-04-15T10:10:10;101840.28;;;10.47;44.48
76680;BME280;65597;51.520;-0.224;2023-04-15T10:12:34;101844.63;;;10.42;44.54
76680;BME280;65597;51.520;-0.224;2023-04-15T10:15:03;101841.47;;;10.64;44.44
76680;BME280;65597;51.520;-0.224;2023-04-15T10:17:27;101845.16;;;10.20;44.51
76680;BME280;65597;51.520;-0.224;2023-04-15T10:19:52;101848.90;;;10.12;45.04
76680;BME280;65597;51.520;-0.224;2023-04-15T10:22:16;101853.87;;;10.03;45.27
76680;BME280;65597;51.520;-0.224;2023-04-15T10:24:41;101856.95;;;10.86;44.67
76680;BME280;65597;51.520;-0.224;2023-04-15T10:27:06;101859.86;;;10.24;44.39
76680;BME280;65597;51.520;-0.224;2023-04-15T10:29:31;101872.11;;;10.31;44.95
76680;BME280;65597;51.520;-0.224;2023-04-15T10:31:58;101878.54;;;10.29;44.95
76680;BME280;65597;51.520;-0.224;2023-04-15T10:34:24;101882.92;;;10.82;45.21
76680;BME280;65597;51.520;-0.224;2023-04-15T10:36:47;101887.46;;;10.92;47.28
76680;BME280;65597;51.520;-0.224;2023-04-15T10:41:38;101897.32;;;10.10;45.22
76680;BME280;65597;51.520;-0.224;2023-04-15T10:44:04;101902.23;;;10.46;44.50
76680;BME280;65597;51.520;-0.224;2023-04-15T10:46:35;101900.46;;;10.48;44.38
76680;BME280;65597;51.520;-0.224;2023-04-15T10:48:54;101901.67;;;10.50;44.10
76680;BME280;65597;51.520;-0.224;2023-04-15T10:51:26;101897.45;;;10.53;43.97
76680;BME280;65597;51.520;-0.224;2023-04-15T10:53:44;101900.32;;;10.67;43.66
76680;BME280;65597;51.520;-0.224;2023-04-15T10:56:10;101899.14;;;11.00;43.48
76680;BME280;65597;51.520;-0.224;2023-04-15T10:58:41;101899.82;;;11.24;44.01
76680;BME280;65597;51.520;-0.224;2023-04-15T11:01:01;101905.96;;;11.27;43.46
76680;BME280;65597;51.520;-0.224;2023-04-15T11:03:35;101912.46;;;11.35;43.43
76680;BME280;65597;51.520;-0.224;2023-04-15T11:05:51;101917.28;;;10.33;43.97
76680;BME280;65597;51.520;-0.224;2023-04-15T11:08:17;101917.81;;;10.34;44.04
76680;BME280;65597;51.520;-0.224;2023-04-15T11:10:50;101923.25;;;10.56;44.09
76680;BME280;65597;51.520;-0.224;2023-04-15T11:13:14;101925.39;;;10.08;44.19
76680;BME280;65597;51.520;-0.224;2023-04-15T11:15:39;101923.55;;;10.80;43.48
76680;BME280;65597;51.520;-0.224;2023-04-15T11:18:08;101922.32;;;10.99;44.09
76680;BME280;65597;51.520;-0.224;2023-04-15T11:20:24;101924.99;;;11.34;43.39
76680;BME280;65597;51.520;-0.224;2023-04-15T11:22:52;101929.88;;;11.25;43.22
76680;BME280;65597;51.520;-0.224;2023-04-15T11:25:21;101932.20;;;11.72;42.85
76680;BME280;65597;51.520;-0.224;2023-04-15T11:27:40;101935.27;;;11.66;42.25
76680;BME280;65597;51.520;-0.224;2023-04-15T11:30:17;101935.16;;;12.04;42.06
76680;BME280;65597;51.520;-0.224;2023-04-15T11:32:31;101934.37;;;10.43;43.00
76680;BME280;65597;51.520;-0.224;2023-04-15T11:34:57;101938.52;;;10.73;42.66
76680;BME280;65597;51.520;-0.224;2023-04-15T11:37:27;101942.26;;;10.64;43.28
76680;BME280;65597;51.520;-0.224;2023-04-15T11:39:48;101944.25;;;11.10;42.70
76680;BME280;65597;51.520;-0.224;2023-04-15T11:42:16;101950.29;;;10.94;43.06
76680;BME280;65597;51.520;-0.224;2023-04-15T11:44:44;101952.41;;;11.03;42.22
76680;BME280;65597;51.520;-0.224;2023-04-15T11:47:22;101951.43;;;10.77;42.23
76680;BME280;65597;51.520;-0.224;2023-04-15T11:49:31;101957.76;;;10.14;44.02
76680;BME280;65597;51.520;-0.224;2023-04-15T11:51:56;101960.61;;;10.80;43.51
76680;BME280;65597;51.520;-0.224;2023-04-15T11:54:21;101959.63;;;10.27;43.63
76680;BME280;65597;51.520;-0.224;2023-04-15T11:56:49;101957.43;;;10.74;42.85
76680;BME280;65597;51.520;-0.224;2023-04-15T11:59:12;101961.62;;;9.84;43.89
76680;BME280;65597;51.520;-0.224;2023-04-15T12:01:37;101961.07;;;10.72;42.85
76680;BME280;65597;51.520;-0.224;2023-04-15T12:04:10;101962.00;;;10.22;43.35
76680;BME280;65597;51.520;-0.224;2023-04-15T12:06:31;101965.75;;;10.26;43.67
76680;BME280;65597;51.520;-0.224;2023-04-15T12:08:59;101966.58;;;10.66;43.38
76680;BME280;65597;51.520;-0.224;2023-04-15T12:11:21;101971.29;;;10.07;43.28
76680;BME280;65597;51.520;-0.224;2023-04-15T12:13:46;101976.86;;;10.24;43.50
76680;BME280;65597;51.520;-0.224;2023-04-15T12:16:09;101978.07;;;10.85;42.66
76680;BME280;65597;51.520;-0.224;2023-04-15T12:18:36;101980.57;;;10.62;42.93
76680;BME280;65597;51.520;-0.224;2023-04-15T12:21:07;101981.93;;;10.18;42.99
76680;BME280;65597;51.520;-0.224;2023-04-15T12:23:25;101983.71;;;10.71;42.29
76680;BME280;65597;51.520;-0.224;2023-04-15T12:25:50;101986.59;;;11.04;41.54
76680;BME280;65597;51.520;-0.224;2023-04-15T12:28:16;101987.92;;;11.57;41.53
76680;BME280;65597;51.520;-0.224;2023-04-15T12:30:47;101986.49;;;11.71;41.50
76680;BME280;65597;51.520;-0.224;2023-04-15T12:33:06;101987.97;;;12.02;40.69
76680;BME280;65597;51.520;-0.224;2023-04-15T12:35:31;101991.32;;;10.78;41.80
76680;BME280;65597;51.520;-0.224;2023-04-15T12:37:56;101992.31;;;11.95;40.25
76680;BME280;65597;51.520;-0.224;2023-04-15T12:40:21;101994.76;;;12.64;39.35
76680;BME280;65597;51.520;-0.224;2023-04-15T12:42:46;101994.83;;;12.06;39.71